sensor_id;sensor_type;location;lat;lon;timestamp;P1;durP1;ratioP1;P2;durP2;ratioP2
31730;SDS011;18310;55.586;12.286;2022-12-29T00:01:42;3.25;;;1.30;;
31730;SDS011;18310;55.586;12.286;2022-12-29T00:04:45;5.63;;;1.50;;
31730;SDS011;18310;55.586;12.286;2022-12-29T00:07:50;3.40;;;1.30;;
31730;SDS011;18310;55.586;12.286;2022-12-29T00:10:53;4.10;;;1.00;;
31730;SDS011;18310;55.586;12.286;2022-12-29T00:13:56;4.40;;;1.48;;
31730;SDS011;18310;55.586;12.286;2022-12-29T00:17:24;2.90;;;1.30;;
31730;SDS011;18310;55.586;12.286;2022-12-29T00:20:27;4.35;;;1.42;;
31730;SDS011;18310;55.586;12.286;2022-12-29T00:23:49;3.03;;;1.20;;
31730;SDS011;18310;55.586;12.286;2022-12-29T00:27:25;5.68;;;1.80;;
31730;SDS011;18310;55.586;12.286;2022-12-29T00:30:46;3.35;;;1.55;;
31730;SDS011;18310;55.586;12.286;2022-12-29T00:34:08;6.30;;;1.70;;
31730;SDS011;18310;55.586;12.286;2022-12-29T00:37:31;5.07;;;2.08;;
31730;SDS011;18310;55.586;12.286;2022-12-29T00:40:49;4.88;;;1.92;;
31730;SDS011;18310;55.586;12.286;2022-12-29T00:44:10;4.90;;;1.63;;
31730;SDS011;18310;55.586;12.286;2022-12-29T00:47:15;2.95;;;1.40;;
31730;SDS011;18310;55.586;12.286;2022-12-29T00:50:18;4.22;;;1.30;;
31730;SDS011;18310;55.586;12.286;2022-12-29T00:53:20;4.38;;;1.70;;
31730;SDS011;18310;55.586;12.286;2022-12-29T00:56:25;3.88;;;1.70;;
31730;SDS011;18310;55.586;12.286;2022-12-29T00:59:28;5.07;;;1.60;;
31730;SDS011;18310;55.586;12.286;2022-12-29T01:02:31;4.80;;;1.65;;
31730;SDS011;18310;55.586;12.286;2022-12-29T01:05:35;4.88;;;1.45;;
31730;SDS011;18310;55.586;12.286;2022-12-29T01:08:38;3.53;;;1.70;;
31730;SDS011;18310;55.586;12.286;2022-12-29T01:11:43;6.13;;;1.88;;
31730;SDS011;18310;55.586;12.286;2022-12-29T01:14:45;3.70;;;1.52;;
31730;SDS011;18310;55.586;12.286;2022-12-29T01:17:48;6.45;;;1.77;;
31730;SDS011;18310;55.586;12.286;2022-12-29T01:20:51;4.85;;;2.08;;
31730;SDS011;18310;55.586;12.286;2022-12-29T01:24:01;4.10;;;1.50;;
31730;SDS011;18310;55.586;12.286;2022-12-29T01:27:06;5.35;;;2.08;;
31730;SDS011;18310;55.586;12.286;2022-12-29T01:30:09;4.50;;;1.83;;
31730;SDS011;18310;55.586;12.286;2022-12-29T01:33:14;6.10;;;1.80;;
31730;SDS011;18310;55.586;12.286;2022-12-29T01:36:18;4.38;;;1.90;;
31730;SDS011;18310;55.586;12.286;2022-12-29T01:39:22;6.30;;;2.17;;
31730;SDS011;18310;55.586;12.286;2022-12-29T01:42:27;5.35;;;2.03;;
31730;SDS011;18310;55.586;12.286;2022-12-29T01:45:30;5.45;;;2.50;;
31730;SDS011;18310;55.586;12.286;2022-12-29T01:48:34;3.22;;;1.70;;
31730;SDS011;18310;55.586;12.286;2022-12-29T01:51:38;8.13;;;2.17;;
31730;SDS011;18310;55.586;12.286;2022-12-29T01:54:46;6.03;;;1.90;;
31730;SDS011;18310;55.586;12.286;2022-12-29T01:57:58;5.85;;;2.30;;
31730;SDS011;18310;55.586;12.286;2022-12-29T02:01:06;7.28;;;2.65;;
31730;SDS011;18310;55.586;12.286;2022-12-29T02:04:10;6.97;;;1.98;;
31730;SDS011;18310;55.586;12.286;2022-12-29T02:07:16;7.45;;;2.10;;
31730;SDS011;18310;55.586;12.286;2022-12-29T02:10:22;4.32;;;1.70;;
31730;SDS011;18310;55.586;12.286;2022-12-29T02:13:31;7.60;;;2.15;;
31730;SDS011;18310;55.586;12.286;2022-12-29T02:16:38;4.90;;;1.95;;
31730;SDS011;18310;55.586;12.286;2022-12-29T02:24:12;3.80;;;1.65;;
31730;SDS011;18310;55.586;12.286;2022-12-29T02:31:29;4.57;;;1.25;;
31730;SDS011;18310;55.586;12.286;2022-12-29T02:34:41;4.20;;;1.33;;
31730;SDS011;18310;55.586;12.286;2022-12-29T02:37:58;2.97;;;1.23;;
31730;SDS011;18310;55.586;12.286;2022-12-29T02:41:16;3.55;;;1.30;;
31730;SDS011;18310;55.586;12.286;2022-12-29T02:44:27;3.45;;;1.30;;
31730;SDS011;18310;55.586;12.286;2022-12-29T02:47:47;3.70;;;1.20;;
31730;SDS011;18310;55.586;12.286;2022-12-29T02:50:58;3.53;;;1.45;;
31730;SDS011;18310;55.586;12.286;2022-12-29T02:54:05;4.07;;;1.25;;
31730;SDS011;18310;55.586;12.286;2022-12-29T02:57:30;2.45;;;1.05;;
31730;SDS011;18310;55.586;12.286;2022-12-29T03:00:36;2.45;;;1.10;;
31730;SDS011;18310;55.586;12.286;2022-12-29T03:03:58;3.78;;;1.30;;
31730;SDS011;18310;55.586;12.286;2022-12-29T03:07:20;5.18;;;1.80;;
31730;SDS011;18310;55.586;12.286;2022-12-29T03:10:35;3.13;;;1.23;;
31730;SDS011;18310;55.586;12.286;2022-12-29T03:13:51;4.85;;;2.30;;
31730;SDS011;18310;55.586;12.286;2022-12-29T03:17:19;5.00;;;1.80;;
31730;SDS011;18310;55.586;12.286;2022-12-29T03:20:34;3.28;;;1.83;;
31730;SDS011;18310;55.586;12.286;2022-12-29T03:23:45;4.30;;;2.15;;
31730;SDS011;18310;55.586;12.286;2022-12-29T03:26:52;4.43;;;2.65;;
31730;SDS011;18310;55.586;12.286;2022-12-29T03:29:59;4.25;;;1.85;;
31730;SDS011;18310;55.586;12.286;2022-12-29T03:33:07;4.95;;;2.53;;
31730;SDS011;18310;55.586;12.286;2022-12-29T03:36:17;7.38;;;2.55;;
31730;SDS011;18310;55.586;12.286;2022-12-29T03:39:29;7.05;;;2.63;;
31730;SDS011;18310;55.586;12.286;2022-12-29T03:42:33;9.63;;;3.05;;
31730;SDS011;18310;55.586;12.286;2022-12-29T03:45:39;6.07;;;3.05;;
31730;SDS011;18310;55.586;12.286;2022-12-29T03:48:42;4.90;;;2.70;;
31730;SDS011;18310;55.586;12.286;2022-12-29T03:51:46;4.80;;;2.40;;
31730;SDS011;18310;55.586;12.286;2022-12-29T03:54:52;4.85;;;2.92;;
31730;SDS011;18310;55.586;12.286;2022-12-29T03:57:56;5.47;;;3.22;;
31730;SDS011;18310;55.586;12.286;2022-12-29T04:04:02;5.20;;;2.67;;
31730;SDS011;18310;55.586;12.286;2022-12-29T04:07:07;7.57;;;2.88;;
31730;SDS011;18310;55.586;12.286;2022-12-29T04:10:10;4.10;;;2.92;;
31730;SDS011;18310;55.586;12.286;2022-12-29T04:13:14;7.07;;;2.97;;
31730;SDS011;18310;55.586;12.286;2022-12-29T04:16:18;6.50;;;3.15;;
31730;SDS011;18310;55.586;12.286;2022-12-29T04:19:22;5.90;;;3.15;;
31730;SDS011;18310;55.586;12.286;2022-12-29T04:22:26;6.70;;;3.05;;
31730;SDS011;18310;55.586;12.286;2022-12-29T04:25:30;4.90;;;3.00;;
31730;SDS011;18310;55.586;12.286;2022-12-29T04:28:34;6.47;;;2.97;;
31730;SDS011;18310;55.586;12.286;2022-12-29T04:31:39;4.47;;;2.33;;
31730;SDS011;18310;55.586;12.286;2022-12-29T04:34:42;4.23;;;2.73;;
31730;SDS011;18310;55.586;12.286;2022-12-29T04:37:46;6.22;;;2.95;;
31730;SDS011;18310;55.586;12.286;2022-12-29T04:40:49;6.45;;;2.88;;
31730;SDS011;18310;55.586;12.286;2022-12-29T04:43:53;5.32;;;3.00;;
31730;SDS011;18310;55.586;12.286;2022-12-29T04:46:57;4.83;;;3.30;;
31730;SDS011;18310;55.586;12.286;2022-12-29T04:50:00;5.50;;;3.33;;
31730;SDS011;18310;55.586;12.286;2022-12-29T04:53:04;7.20;;;3.38;;
31730;SDS011;18310;55.586;12.286;2022-12-29T04:56:08;5.43;;;3.38;;
31730;SDS011;18310;55.586;12.286;2022-12-29T04:59:11;5.60;;;3.25;;
31730;SDS011;18310;55.586;12.286;2022-12-29T05:02:14;7.67;;;2.80;;
31730;SDS011;18310;55.586;12.286;2022-12-29T05:05:19;7.25;;;3.40;;
31730;SDS011;18310;55.586;12.286;2022-12-29T05:08:23;4.95;;;2.83;;
31730;SDS011;18310;55.586;12.286;2022-12-29T05:11:28;5.32;;;2.40;;
31730;SDS011;18310;55.586;12.286;2022-12-29T05:14:32;6.15;;;3.08;;
31730;SDS011;18310;55.586;12.286;2022-12-29T05:17:35;5.57;;;2.58;;
31730;SDS011;18310;55.586;12.286;2022-12-29T05:20:39;4.28;;;2.38;;
31730;SDS011;18310;55.586;12.286;2022-12-29T05:23:43;6.97;;;2.72;;
31730;SDS011;18310;55.586;12.286;2022-12-29T05:26:46;3.67;;;2.17;;
31730;SDS011;18310;55.586;12.286;2022-12-29T05:29:49;4.68;;;2.67;;
31730;SDS011;18310;55.586;12.286;2022-12-29T05:32:52;6.30;;;2.60;;
31730;SDS011;18310;55.586;12.286;2022-12-29T05:35:55;7.22;;;2.35;;
31730;SDS011;18310;55.586;12.286;2022-12-29T05:39:00;6.38;;;2.67;;
31730;SDS011;18310;55.586;12.286;2022-12-29T05:42:03;6.78;;;2.67;;
31730;SDS011;18310;55.586;12.286;2022-12-29T05:45:07;6.13;;;2.53;;
31730;SDS011;18310;55.586;12.286;2022-12-29T05:48:11;4.38;;;2.58;;
31730;SDS011;18310;55.586;12.286;2022-12-29T05:51:14;4.88;;;2.70;;
31730;SDS011;18310;55.586;12.286;2022-12-29T05:57:22;3.78;;;2.55;;
31730;SDS011;18310;55.586;12.286;2022-12-29T06:00:26;5.63;;;2.78;;
31730;SDS011;18310;55.586;12.286;2022-12-29T06:03:29;5.47;;;2.63;;
31730;SDS011;18310;55.586;12.286;2022-12-29T06:06:32;6.00;;;2.90;;
31730;SDS011;18310;55.586;12.286;2022-12-29T06:09:38;6.00;;;3.10;;
31730;SDS011;18310;55.586;12.286;2022-12-29T06:12:41;5.97;;;3.13;;
31730;SDS011;18310;55.586;12.286;2022-12-29T06:15:44;6.55;;;3.20;;
31730;SDS011;18310;55.586;12.286;2022-12-29T06:18:47;3.92;;;2.53;;
31730;SDS011;18310;55.586;12.286;2022-12-29T06:21:50;5.13;;;2.90;;
31730;SDS011;18310;55.586;12.286;2022-12-29T06:24:55;7.70;;;3.20;;
31730;SDS011;18310;55.586;12.286;2022-12-29T06:28:05;6.10;;;3.53;;
31730;SDS011;18310;55.586;12.286;2022-12-29T06:31:08;7.37;;;3.37;;
31730;SDS011;18310;55.586;12.286;2022-12-29T06:34:12;6.05;;;3.20;;
31730;SDS011;18310;55.586;12.286;2022-12-29T06:37:15;5.87;;;3.23;;
31730;SDS011;18310;55.586;12.286;2022-12-29T06:40:20;5.22;;;2.80;;
31730;SDS011;18310;55.586;12.286;2022-12-29T06:43:24;7.35;;;2.95;;
31730;SDS011;18310;55.586;12.286;2022-12-29T06:46:27;4.18;;;2.95;;
31730;SDS011;18310;55.586;12.286;2022-12-29T06:49:30;6.60;;;3.13;;
31730;SDS011;18310;55.586;12.286;2022-12-29T06:52:34;6.00;;;2.95;;
31730;SDS011;18310;55.586;12.286;2022-12-29T06:55:38;4.38;;;2.85;;
31730;SDS011;18310;55.586;12.286;2022-12-29T06:58:43;4.95;;;2.47;;
31730;SDS011;18310;55.586;12.286;2022-12-29T07:01:46;9.27;;;2.92;;
31730;SDS011;18310;55.586;12.286;2022-12-29T07:04:49;5.47;;;2.60;;
31730;SDS011;18310;55.586;12.286;2022-12-29T07:07:53;6.45;;;3.10;;
31730;SDS011;18310;55.586;12.286;2022-12-29T07:10:58;6.05;;;3.08;;
31730;SDS011;18310;55.586;12.286;2022-12-29T07:14:02;6.90;;;3.58;;
31730;SDS011;18310;55.586;12.286;2022-12-29T07:17:06;6.70;;;2.80;;
31730;SDS011;18310;55.586;12.286;2022-12-29T07:20:09;7.47;;;2.88;;
31730;SDS011;18310;55.586;12.286;2022-12-29T07:23:13;5.18;;;2.72;;
31730;SDS011;18310;55.586;12.286;2022-12-29T07:26:17;4.07;;;2.57;;
31730;SDS011;18310;55.586;12.286;2022-12-29T07:29:21;4.22;;;2.55;;
31730;SDS011;18310;55.586;12.286;2022-12-29T07:32:24;6.45;;;2.92;;
31730;SDS011;18310;55.586;12.286;2022-12-29T07:35:27;4.82;;;2.60;;
31730;SDS011;18310;55.586;12.286;2022-12-29T07:38:30;7.53;;;2.60;;
31730;SDS011;18310;55.586;12.286;2022-12-29T07:41:35;3.78;;;2.40;;
31730;SDS011;18310;55.586;12.286;2022-12-29T07:44:38;3.47;;;2.03;;
31730;SDS011;18310;55.586;12.286;2022-12-29T07:47:41;7.75;;;2.58;;
31730;SDS011;18310;55.586;12.286;2022-12-29T07:50:44;5.60;;;2.50;;
31730;SDS011;18310;55.586;12.286;2022-12-29T07:53:47;8.30;;;1.73;;
31730;SDS011;18310;55.586;12.286;2022-12-29T07:56:51;3.35;;;1.30;;
31730;SDS011;18310;55.586;12.286;2022-12-29T07:59:55;1.80;;;0.85;;
31730;SDS011;18310;55.586;12.286;2022-12-29T08:02:58;2.92;;;1.00;;
31730;SDS011;18310;55.586;12.286;2022-12-29T08:06:01;3.42;;;1.35;;
31730;SDS011;18310;55.586;12.286;2022-12-29T08:09:04;4.53;;;1.40;;
31730;SDS011;18310;55.586;12.286;2022-12-29T08:12:21;2.78;;;1.20;;
31730;SDS011;18310;55.586;12.286;2022-12-29T08:15:24;3.00;;;1.33;;
31730;SDS011;18310;55.586;12.286;2022-12-29T08:18:33;2.90;;;1.38;;
31730;SDS011;18310;55.586;12.286;2022-12-29T08:21:36;2.45;;;1.40;;
31730;SDS011;18310;55.586;12.286;2022-12-29T08:24:39;3.60;;;1.90;;
31730;SDS011;18310;55.586;12.286;2022-12-29T08:27:44;3.45;;;1.30;;
31730;SDS011;18310;55.586;12.286;2022-12-29T08:30:47;2.53;;;1.35;;
31730;SDS011;18310;55.586;12.286;2022-12-29T08:33:50;3.70;;;1.50;;
31730;SDS011;18310;55.586;12.286;2022-12-29T08:36:54;4.70;;;1.40;;
31730;SDS011;18310;55.586;12.286;2022-12-29T08:39:57;5.28;;;1.25;;
31730;SDS011;18310;55.586;12.286;2022-12-29T08:43:06;2.53;;;0.98;;
31730;SDS011;18310;55.586;12.286;2022-12-29T08:46:09;1.70;;;0.90;;
31730;SDS011;18310;55.586;12.286;2022-12-29T08:49:12;2.65;;;1.00;;
31730;SDS011;18310;55.586;12.286;2022-12-29T08:52:16;2.77;;;0.83;;
31730;SDS011;18310;55.586;12.286;2022-12-29T08:55:19;2.30;;;1.00;;
31730;SDS011;18310;55.586;12.286;2022-12-29T08:58:23;4.57;;;1.10;;
31730;SDS011;18310;55.586;12.286;2022-12-29T09:01:27;2.88;;;1.10;;
31730;SDS011;18310;55.586;12.286;2022-12-29T09:07:34;2.03;;;0.77;;
31730;SDS011;18310;55.586;12.286;2022-12-29T09:10:38;4.45;;;1.10;;
31730;SDS011;18310;55.586;12.286;2022-12-29T09:13:42;2.58;;;1.20;;
31730;SDS011;18310;55.586;12.286;2022-12-29T09:16:45;3.95;;;1.20;;
31730;SDS011;18310;55.586;12.286;2022-12-29T09:20:06;2.47;;;1.00;;
31730;SDS011;18310;55.586;12.286;2022-12-29T09:23:10;2.45;;;1.05;;
31730;SDS011;18310;55.586;12.286;2022-12-29T09:26:13;3.72;;;0.93;;
31730;SDS011;18310;55.586;12.286;2022-12-29T09:29:18;4.22;;;1.20;;
31730;SDS011;18310;55.586;12.286;2022-12-29T09:32:21;5.78;;;1.45;;
31730;SDS011;18310;55.586;12.286;2022-12-29T09:35:30;4.13;;;1.20;;
31730;SDS011;18310;55.586;12.286;2022-12-29T09:38:33;5.72;;;1.38;;
31730;SDS011;18310;55.586;12.286;2022-12-29T09:41:36;3.28;;;1.45;;
31730;SDS011;18310;55.586;12.286;2022-12-29T09:44:50;5.03;;;1.38;;
31730;SDS011;18310;55.586;12.286;2022-12-29T09:48:06;5.43;;;1.50;;
31730;SDS011;18310;55.586;12.286;2022-12-29T09:51:21;6.57;;;1.20;;
31730;SDS011;18310;55.586;12.286;2022-12-29T09:54:32;2.88;;;1.10;;
31730;SDS011;18310;55.586;12.286;2022-12-29T09:57:49;4.18;;;1.50;;
31730;SDS011;18310;55.586;12.286;2022-12-29T10:01:00;2.33;;;1.10;;
31730;SDS011;18310;55.586;12.286;2022-12-29T10:04:07;3.78;;;1.40;;
31730;SDS011;18310;55.586;12.286;2022-12-29T10:07:12;2.87;;;1.33;;
31730;SDS011;18310;55.586;12.286;2022-12-29T10:10:34;3.42;;;1.17;;
31730;SDS011;18310;55.586;12.286;2022-12-29T10:13:43;5.70;;;1.10;;
31730;SDS011;18310;55.586;12.286;2022-12-29T10:17:20;3.63;;;0.88;;
31730;SDS011;18310;55.586;12.286;2022-12-29T10:20:38;6.60;;;1.23;;
31730;SDS011;18310;55.586;12.286;2022-12-29T10:23:54;3.88;;;1.40;;
31730;SDS011;18310;55.586;12.286;2022-12-29T10:27:01;3.03;;;0.93;;
31730;SDS011;18310;55.586;12.286;2022-12-29T10:30:11;2.50;;;0.75;;
31730;SDS011;18310;55.586;12.286;2022-12-29T10:33:18;5.03;;;0.98;;
31730;SDS011;18310;55.586;12.286;2022-12-29T10:36:28;5.45;;;1.33;;
31730;SDS011;18310;55.586;12.286;2022-12-29T10:39:38;9.13;;;1.42;;
31730;SDS011;18310;55.586;12.286;2022-12-29T10:42:52;7.13;;;1.50;;
31730;SDS011;18310;55.586;12.286;2022-12-29T10:45:58;4.15;;;1.27;;
31730;SDS011;18310;55.586;12.286;2022-12-29T10:49:10;6.15;;;1.35;;
31730;SDS011;18310;55.586;12.286;2022-12-29T10:52:22;5.93;;;1.42;;
31730;SDS011;18310;55.586;12.286;2022-12-29T10:55:31;4.95;;;1.20;;
31730;SDS011;18310;55.586;12.286;2022-12-29T10:58:38;8.40;;;1.40;;
31730;SDS011;18310;55.586;12.286;2022-12-29T11:01:53;3.42;;;0.73;;
31730;SDS011;18310;55.586;12.286;2022-12-29T11:05:25;5.82;;;1.33;;
31730;SDS011;18310;55.586;12.286;2022-12-29T11:08:36;6.07;;;1.60;;
31730;SDS011;18310;55.586;12.286;2022-12-29T11:11:47;7.15;;;1.38;;
31730;SDS011;18310;55.586;12.286;2022-12-29T11:15:01;9.77;;;1.33;;
31730;SDS011;18310;55.586;12.286;2022-12-29T11:18:20;6.90;;;1.70;;
31730;SDS011;18310;55.586;12.286;2022-12-29T11:21:33;9.32;;;1.73;;
31730;SDS011;18310;55.586;12.286;2022-12-29T11:24:43;7.30;;;1.40;;
31730;SDS011;18310;55.586;12.286;2022-12-29T11:27:54;6.35;;;1.33;;
31730;SDS011;18310;55.586;12.286;2022-12-29T11:31:00;4.22;;;1.00;;
31730;SDS011;18310;55.586;12.286;2022-12-29T11:34:06;6.93;;;1.58;;
31730;SDS011;18310;55.586;12.286;2022-12-29T11:37:12;6.13;;;1.00;;
31730;SDS011;18310;55.586;12.286;2022-12-29T11:40:17;9.60;;;1.98;;
31730;SDS011;18310;55.586;12.286;2022-12-29T11:43:23;15.27;;;1.88;;
31730;SDS011;18310;55.586;12.286;2022-12-29T11:46:35;7.68;;;1.67;;
31730;SDS011;18310;55.586;12.286;2022-12-29T11:49:40;8.73;;;1.55;;
31730;SDS011;18310;55.586;12.286;2022-12-29T11:52:45;10.83;;;2.17;;
31730;SDS011;18310;55.586;12.286;2022-12-29T11:55:52;6.00;;;1.95;;
31730;SDS011;18310;55.586;12.286;2022-12-29T11:58:58;8.80;;;1.55;;
31730;SDS011;18310;55.586;12.286;2022-12-29T12:02:48;4.70;;;1.35;;
31730;SDS011;18310;55.586;12.286;2022-12-29T12:05:58;11.18;;;1.60;;
31730;SDS011;18310;55.586;12.286;2022-12-29T12:09:06;9.57;;;1.85;;
31730;SDS011;18310;55.586;12.286;2022-12-29T12:12:20;7.82;;;1.50;;
31730;SDS011;18310;55.586;12.286;2022-12-29T12:15:31;8.80;;;1.40;;
31730;SDS011;18310;55.586;12.286;2022-12-29T12:18:47;7.20;;;1.63;;
31730;SDS011;18310;55.586;12.286;2022-12-29T12:21:55;5.97;;;1.73;;
31730;SDS011;18310;55.586;12.286;2022-12-29T12:25:10;7.55;;;1.92;;
31730;SDS011;18310;55.586;12.286;2022-12-29T12:28:24;6.72;;;1.73;;
31730;SDS011;18310;55.586;12.286;2022-12-29T12:31:41;5.47;;;1.65;;
31730;SDS011;18310;55.586;12.286;2022-12-29T12:34:52;8.98;;;1.77;;
31730;SDS011;18310;55.586;12.286;2022-12-29T12:37:59;7.45;;;1.52;;
31730;SDS011;18310;55.586;12.286;2022-12-29T12:41:20;7.18;;;1.63;;
31730;SDS011;18310;55.586;12.286;2022-12-29T12:44:41;10.90;;;1.90;;
31730;SDS011;18310;55.586;12.286;2022-12-29T12:48:02;7.15;;;1.40;;
31730;SDS011;18310;55.586;12.286;2022-12-29T12:51:25;7.18;;;1.88;;
31730;SDS011;18310;55.586;12.286;2022-12-29T12:54:42;7.03;;;1.67;;
31730;SDS011;18310;55.586;12.286;2022-12-29T12:58:09;7.15;;;1.67;;
31730;SDS011;18310;55.586;12.286;2022-12-29T13:01:31;6.97;;;1.73;;
31730;SDS011;18310;55.586;12.286;2022-12-29T13:05:02;7.10;;;1.88;;
31730;SDS011;18310;55.586;12.286;2022-12-29T13:08:36;12.57;;;1.90;;
31730;SDS011;18310;55.586;12.286;2022-12-29T13:12:11;6.90;;;1.38;;
31730;SDS011;18310;55.586;12.286;2022-12-29T13:15:35;4.60;;;1.13;;
31730;SDS011;18310;55.586;12.286;2022-12-29T13:18:52;8.20;;;1.67;;
31730;SDS011;18310;55.586;12.286;2022-12-29T13:22:05;7.82;;;1.67;;
31730;SDS011;18310;55.586;12.286;2022-12-29T13:25:21;7.65;;;1.75;;
31730;SDS011;18310;55.586;12.286;2022-12-29T13:28:36;6.95;;;1.70;;
31730;SDS011;18310;55.586;12.286;2022-12-29T13:31:59;8.27;;;1.55;;
31730;SDS011;18310;55.586;12.286;2022-12-29T13:35:28;8.57;;;1.98;;
31730;SDS011;18310;55.586;12.286;2022-12-29T13:39:01;11.30;;;2.03;;
31730;SDS011;18310;55.586;12.286;2022-12-29T13:42:20;7.90;;;1.75;;
31730;SDS011;18310;55.586;12.286;2022-12-29T13:45:26;10.95;;;1.58;;
31730;SDS011;18310;55.586;12.286;2022-12-29T13:48:37;6.90;;;1.70;;
31730;SDS011;18310;55.586;12.286;2022-12-29T13:51:49;9.52;;;1.95;;
31730;SDS011;18310;55.586;12.286;2022-12-29T13:54:56;11.07;;;2.00;;
31730;SDS011;18310;55.586;12.286;2022-12-29T13:58:12;7.35;;;1.50;;
31730;SDS011;18310;55.586;12.286;2022-12-29T14:01:29;6.43;;;1.83;;
31730;SDS011;18310;55.586;12.286;2022-12-29T14:04:48;7.85;;;1.40;;
31730;SDS011;18310;55.586;12.286;2022-12-29T14:08:00;7.63;;;1.30;;
31730;SDS011;18310;55.586;12.286;2022-12-29T14:11:07;9.48;;;1.70;;
31730;SDS011;18310;55.586;12.286;2022-12-29T14:14:16;8.13;;;1.77;;
31730;SDS011;18310;55.586;12.286;2022-12-29T14:17:24;6.40;;;1.50;;
31730;SDS011;18310;55.586;12.286;2022-12-29T14:20:28;9.23;;;1.83;;
31730;SDS011;18310;55.586;12.286;2022-12-29T14:23:36;8.98;;;1.88;;
31730;SDS011;18310;55.586;12.286;2022-12-29T14:26:42;5.30;;;1.40;;
31730;SDS011;18310;55.586;12.286;2022-12-29T14:29:46;9.23;;;1.50;;
31730;SDS011;18310;55.586;12.286;2022-12-29T14:33:01;5.97;;;1.38;;
31730;SDS011;18310;55.586;12.286;2022-12-29T14:36:19;14.07;;;1.70;;
31730;SDS011;18310;55.586;12.286;2022-12-29T14:39:37;6.38;;;1.25;;
31730;SDS011;18310;55.586;12.286;2022-12-29T14:42:42;5.43;;;1.33;;
31730;SDS011;18310;55.586;12.286;2022-12-29T14:45:51;5.45;;;1.30;;
31730;SDS011;18310;55.586;12.286;2022-12-29T14:52:06;12.73;;;1.45;;
31730;SDS011;18310;55.586;12.286;2022-12-29T14:55:30;4.43;;;1.02;;
31730;SDS011;18310;55.586;12.286;2022-12-29T14:58:43;4.82;;;1.10;;
31730;SDS011;18310;55.586;12.286;2022-12-29T15:01:53;6.30;;;1.25;;
31730;SDS011;18310;55.586;12.286;2022-12-29T15:04:59;4.50;;;1.00;;
31730;SDS011;18310;55.586;12.286;2022-12-29T15:08:06;8.77;;;1.55;;
31730;SDS011;18310;55.586;12.286;2022-12-29T15:11:12;6.00;;;1.45;;
31730;SDS011;18310;55.586;12.286;2022-12-29T15:14:33;6.15;;;1.10;;
31730;SDS011;18310;55.586;12.286;2022-12-29T15:17:38;6.32;;;1.30;;
31730;SDS011;18310;55.586;12.286;2022-12-29T15:20:41;6.57;;;1.25;;
31730;SDS011;18310;55.586;12.286;2022-12-29T15:23:46;6.03;;;1.17;;
31730;SDS011;18310;55.586;12.286;2022-12-29T15:26:51;5.15;;;1.50;;
31730;SDS011;18310;55.586;12.286;2022-12-29T15:29:57;6.82;;;1.40;;
31730;SDS011;18310;55.586;12.286;2022-12-29T15:33:08;5.93;;;1.45;;
31730;SDS011;18310;55.586;12.286;2022-12-29T15:36:22;7.75;;;1.70;;
31730;SDS011;18310;55.586;12.286;2022-12-29T15:39:30;6.43;;;1.70;;
31730;SDS011;18310;55.586;12.286;2022-12-29T15:42:45;13.35;;;6.32;;
31730;SDS011;18310;55.586;12.286;2022-12-29T15:46:02;7.53;;;2.70;;
31730;SDS011;18310;55.586;12.286;2022-12-29T15:49:06;5.72;;;1.75;;
31730;SDS011;18310;55.586;12.286;2022-12-29T15:52:16;4.78;;;1.70;;
31730;SDS011;18310;55.586;12.286;2022-12-29T15:55:24;6.40;;;1.80;;
31730;SDS011;18310;55.586;12.286;2022-12-29T15:58:39;9.43;;;1.55;;
31730;SDS011;18310;55.586;12.286;2022-12-29T16:01:45;10.50;;;1.70;;
31730;SDS011;18310;55.586;12.286;2022-12-29T16:04:49;5.73;;;1.80;;
31730;SDS011;18310;55.586;12.286;2022-12-29T16:08:21;8.57;;;1.42;;
31730;SDS011;18310;55.586;12.286;2022-12-29T16:11:37;4.38;;;1.40;;
31730;SDS011;18310;55.586;12.286;2022-12-29T16:14:43;5.85;;;1.77;;
31730;SDS011;18310;55.586;12.286;2022-12-29T16:17:51;8.10;;;1.42;;
31730;SDS011;18310;55.586;12.286;2022-12-29T16:20:56;5.90;;;1.40;;
31730;SDS011;18310;55.586;12.286;2022-12-29T16:24:00;8.38;;;2.22;;
31730;SDS011;18310;55.586;12.286;2022-12-29T16:27:14;9.18;;;2.10;;
31730;SDS011;18310;55.586;12.286;2022-12-29T16:30:24;11.60;;;1.80;;
31730;SDS011;18310;55.586;12.286;2022-12-29T16:33:39;14.18;;;1.98;;
31730;SDS011;18310;55.586;12.286;2022-12-29T16:36:57;10.05;;;2.25;;
31730;SDS011;18310;55.586;12.286;2022-12-29T16:40:23;10.50;;;1.70;;
31730;SDS011;18310;55.586;12.286;2022-12-29T16:43:34;11.13;;;2.10;;
31730;SDS011;18310;55.586;12.286;2022-12-29T16:46:43;14.02;;;2.40;;
31730;SDS011;18310;55.586;12.286;2022-12-29T16:50:10;12.48;;;2.35;;
31730;SDS011;18310;55.586;12.286;2022-12-29T16:53:29;12.65;;;2.33;;
31730;SDS011;18310;55.586;12.286;2022-12-29T16:56:38;12.70;;;2.40;;
31730;SDS011;18310;55.586;12.286;2022-12-29T16:59:48;12.18;;;2.38;;
31730;SDS011;18310;55.586;12.286;2022-12-29T17:02:57;9.35;;;2.40;;
31730;SDS011;18310;55.586;12.286;2022-12-29T17:06:03;12.73;;;2.50;;
31730;SDS011;18310;55.586;12.286;2022-12-29T17:09:17;17.38;;;2.53;;
31730;SDS011;18310;55.586;12.286;2022-12-29T17:12:23;12.90;;;2.80;;
31730;SDS011;18310;55.586;12.286;2022-12-29T17:15:31;13.63;;;2.63;;
31730;SDS011;18310;55.586;12.286;2022-12-29T17:18:35;12.90;;;2.45;;
31730;SDS011;18310;55.586;12.286;2022-12-29T17:21:39;18.50;;;3.00;;
31730;SDS011;18310;55.586;12.286;2022-12-29T17:24:42;13.68;;;3.28;;
31730;SDS011;18310;55.586;12.286;2022-12-29T17:27:46;15.73;;;2.70;;
31730;SDS011;18310;55.586;12.286;2022-12-29T17:30:57;15.25;;;2.75;;
31730;SDS011;18310;55.586;12.286;2022-12-29T17:34:04;17.85;;;2.90;;
31730;SDS011;18310;55.586;12.286;2022-12-29T17:37:15;13.73;;;2.83;;
31730;SDS011;18310;55.586;12.286;2022-12-29T17:40:33;20.65;;;3.17;;
31730;SDS011;18310;55.586;12.286;2022-12-29T17:46:42;12.10;;;3.58;;
31730;SDS011;18310;55.586;12.286;2022-12-29T17:49:46;18.73;;;3.83;;
31730;SDS011;18310;55.586;12.286;2022-12-29T17:52:50;12.02;;;3.80;;
31730;SDS011;18310;55.586;12.286;2022-12-29T17:56:01;15.40;;;3.55;;
31730;SDS011;18310;55.586;12.286;2022-12-29T17:59:07;16.15;;;3.33;;
31730;SDS011;18310;55.586;12.286;2022-12-29T18:02:26;15.70;;;2.63;;
31730;SDS011;18310;55.586;12.286;2022-12-29T18:05:32;18.85;;;3.92;;
31730;SDS011;18310;55.586;12.286;2022-12-29T18:08:36;18.23;;;4.35;;
31730;SDS011;18310;55.586;12.286;2022-12-29T18:11:41;12.05;;;2.72;;
31730;SDS011;18310;55.586;12.286;2022-12-29T18:14:46;26.05;;;4.45;;
31730;SDS011;18310;55.586;12.286;2022-12-29T18:17:52;16.23;;;3.97;;
31730;SDS011;18310;55.586;12.286;2022-12-29T18:21:01;19.48;;;3.42;;
31730;SDS011;18310;55.586;12.286;2022-12-29T18:24:05;19.83;;;3.72;;
31730;SDS011;18310;55.586;12.286;2022-12-29T18:27:13;18.88;;;3.47;;
31730;SDS011;18310;55.586;12.286;2022-12-29T18:30:19;14.98;;;3.30;;
31730;SDS011;18310;55.586;12.286;2022-12-29T18:33:23;16.30;;;3.30;;
31730;SDS011;18310;55.586;12.286;2022-12-29T18:36:27;17.55;;;3.05;;
31730;SDS011;18310;55.586;12.286;2022-12-29T18:39:32;18.77;;;3.30;;
31730;SDS011;18310;55.586;12.286;2022-12-29T18:42:35;22.05;;;3.72;;
31730;SDS011;18310;55.586;12.286;2022-12-29T18:45:38;11.95;;;3.25;;
31730;SDS011;18310;55.586;12.286;2022-12-29T18:48:42;15.00;;;4.18;;
31730;SDS011;18310;55.586;12.286;2022-12-29T18:51:45;15.48;;;3.47;;
31730;SDS011;18310;55.586;12.286;2022-12-29T18:54:48;14.23;;;3.58;;
31730;SDS011;18310;55.586;12.286;2022-12-29T18:57:51;16.98;;;3.28;;
31730;SDS011;18310;55.586;12.286;2022-12-29T19:00:56;18.42;;;3.22;;
31730;SDS011;18310;55.586;12.286;2022-12-29T19:04:01;21.95;;;4.03;;